Kezdőlap
METAR-TAF:

METAR-TAF

Repülőterek :

Vakkanai, Japán

földrajzi szélesség: 45-24N, földrajzi hosszúság: 141-48E, magasság: 8 m

Jelenlegi meteorológiai megfigyelések

A jelentés 4 órával és 42 perccel ezelõtt készült, 09:00 UTC
Nyugat-délnyugati szél 4 kt
Hőmérséklet 11°C
Páratartalom 94%
Légköri nyomás 1000 hPa
Látótávolság 10 km, vagy több
Kevés felhő 300 lábon
Szórványos felhőzet 800 lábon
Szakadozott felhőzet 3000 lábon
enyhe záporok,

METAR: RJCW 250900Z 24004KT 9999 -SHRA FEW003 SCT008 BKN030 11/10 Q1000

Idő: 22:42 (13:42 UTC)


TAF: hiányzik

Meteorológiai megfigyelések és előrejelzések több, mint 4000 repülőtéren (METAR és TAF jelentéseket).

A térképen piros és sárga pontok jelzik az elérhető meteorológiai állomásokat.

Mozgassa az egeret a pont fölött, hogy megjelenjen az állomás neve.

Azután kattintson az időjárási megfigyelések és előrejelzések megtekintéséhez.

A térkép megváltoztatása: kattintson a fekete keresztel jelölt zöld gombra ráközelítéshez, a vonallal jelölt zöld gombra távolításhoz, vagy a zöld nyilakra a szomszédos térképek eléréséhez.


METAR-TAF: